createdAt,value
2023-01-13T00:02:04.754Z,8.58
2023-01-13T00:04:31.036Z,8.55
2023-01-13T00:06:57.276Z,8.58
2023-01-13T00:09:23.514Z,8.59
2023-01-13T00:11:49.759Z,8.56
2023-01-13T00:14:15.996Z,8.66
2023-01-13T00:16:42.232Z,8.67
2023-01-13T00:19:08.467Z,8.65
2023-01-13T00:21:34.699Z,8.58
2023-01-13T00:24:00.951Z,8.61
2023-01-13T00:26:27.227Z,8.57
2023-01-13T00:28:53.457Z,8.56
2023-01-13T00:31:19.730Z,8.61
2023-01-13T00:33:46.102Z,8.56
2023-01-13T00:36:12.360Z,8.62
2023-01-13T00:38:38.621Z,8.53
2023-01-13T00:41:04.854Z,8.54
2023-01-13T00:43:31.097Z,8.58
2023-01-13T00:45:57.335Z,8.60
2023-01-13T00:48:23.595Z,8.58
2023-01-13T00:50:49.858Z,8.57
2023-01-13T00:53:16.087Z,8.56
2023-01-13T00:55:42.327Z,8.64
2023-01-13T00:58:08.566Z,8.63
2023-01-13T01:00:34.864Z,8.64
2023-01-13T01:03:01.130Z,8.70
2023-01-13T01:05:27.356Z,8.63
2023-01-13T01:07:53.602Z,8.56
2023-01-13T01:10:19.836Z,8.34
2023-01-13T01:12:46.123Z,8.22
2023-01-13T01:15:12.366Z,8.09
2023-01-13T01:17:38.623Z,8.06
2023-01-13T01:20:04.858Z,8.05
2023-01-13T01:22:31.094Z,8.01
2023-01-13T01:24:57.334Z,8.00
2023-01-13T01:27:23.575Z,8.14
2023-01-13T01:29:49.804Z,7.98
2023-01-13T01:32:16.048Z,8.22
2023-01-13T01:34:42.278Z,8.15
2023-01-13T01:37:08.529Z,8.22
2023-01-13T01:39:34.781Z,8.21
2023-01-13T01:42:01.019Z,8.25
2023-01-13T01:44:27.352Z,8.39
2023-01-13T01:46:53.666Z,8.40
2023-01-13T01:49:19.930Z,8.43
2023-01-13T01:51:46.168Z,8.42
2023-01-13T01:54:12.423Z,8.34
2023-01-13T01:56:38.654Z,8.35
2023-01-13T01:59:04.884Z,8.32
2023-01-13T02:01:31.207Z,8.39
2023-01-13T02:03:57.525Z,8.40
2023-01-13T02:06:23.775Z,8.51
2023-01-13T02:08:50.003Z,8.51
2023-01-13T02:11:16.241Z,8.54
2023-01-13T02:13:42.482Z,8.55
2023-01-13T02:16:08.770Z,8.52
2023-01-13T02:18:35.035Z,8.52
2023-01-13T02:21:01.269Z,8.51
2023-01-13T02:23:27.502Z,8.43
2023-01-13T02:25:53.739Z,8.38
2023-01-13T02:28:20.121Z,8.39
2023-01-13T02:30:46.370Z,8.40
2023-01-13T02:33:12.604Z,8.34
2023-01-13T02:35:38.846Z,8.35
2023-01-13T02:38:05.078Z,8.37
2023-01-13T02:40:31.339Z,8.39
2023-01-13T02:42:57.578Z,8.36
2023-01-13T02:45:23.880Z,8.49
2023-01-13T02:47:50.146Z,8.51
2023-01-13T02:50:16.402Z,8.40
2023-01-13T02:52:42.650Z,8.31
2023-01-13T02:55:08.881Z,8.28
2023-01-13T02:57:35.116Z,8.42
2023-01-13T03:00:01.385Z,8.42
2023-01-13T03:02:27.710Z,8.38
2023-01-13T03:04:54.027Z,8.39
2023-01-13T03:07:20.294Z,8.46
2023-01-13T03:09:46.552Z,8.49
2023-01-13T03:12:12.823Z,8.43
2023-01-13T03:14:39.114Z,8.30
2023-01-13T03:17:05.385Z,8.35
2023-01-13T03:19:31.670Z,8.22
2023-01-13T03:21:57.924Z,8.22
2023-01-13T03:24:24.176Z,8.13
2023-01-13T03:26:50.436Z,8.10
2023-01-13T03:29:16.731Z,8.02
2023-01-13T03:31:42.992Z,8.07
2023-01-13T03:34:09.234Z,8.12
2023-01-13T03:36:35.487Z,8.10
2023-01-13T03:39:01.767Z,8.06
2023-01-13T03:41:28.037Z,7.84
2023-01-13T03:43:54.280Z,7.92
2023-01-13T03:46:20.572Z,7.92
2023-01-13T03:48:46.847Z,7.91
2023-01-13T03:51:13.112Z,7.77
2023-01-13T03:53:39.377Z,7.72
2023-01-13T03:56:05.636Z,7.65
2023-01-13T03:58:31.881Z,7.90
2023-01-13T04:00:58.211Z,7.64
2023-01-13T04:03:24.607Z,7.69
2023-01-13T04:05:50.846Z,7.82
2023-01-13T04:08:17.123Z,7.83
2023-01-13T04:10:43.401Z,7.67
2023-01-13T04:13:09.685Z,7.65
2023-01-13T04:15:35.968Z,7.75
2023-01-13T04:18:02.268Z,7.64
2023-01-13T04:20:28.528Z,7.72
2023-01-13T04:22:54.787Z,7.83
2023-01-13T04:25:21.054Z,7.79
2023-01-13T04:27:47.303Z,7.79
2023-01-13T04:30:13.565Z,7.74
2023-01-13T04:32:39.887Z,7.59
2023-01-13T04:35:06.236Z,7.63
2023-01-13T04:37:32.499Z,7.69
2023-01-13T04:39:58.743Z,7.62
2023-01-13T04:42:25.095Z,7.38
2023-01-13T04:44:51.353Z,7.38
2023-01-13T04:47:17.595Z,7.30
2023-01-13T04:49:43.849Z,7.37
2023-01-13T04:52:10.113Z,7.05
2023-01-13T04:54:36.389Z,7.14
2023-01-13T04:57:02.651Z,7.12
2023-01-13T04:59:28.896Z,7.23
2023-01-13T05:01:55.217Z,7.35
2023-01-13T05:04:21.525Z,7.37
2023-01-13T05:06:47.775Z,7.44
2023-01-13T05:09:14.041Z,7.46
2023-01-13T05:11:40.322Z,7.49
2023-01-13T05:14:06.672Z,7.44
2023-01-13T05:16:32.928Z,7.45
2023-01-13T05:18:59.191Z,7.48
2023-01-13T05:21:25.465Z,7.27
2023-01-13T05:23:51.720Z,7.22
2023-01-13T05:26:17.998Z,7.10
2023-01-13T05:28:44.273Z,7.08
2023-01-13T05:31:10.571Z,7.14
2023-01-13T05:33:36.845Z,7.12
2023-01-13T05:36:03.142Z,7.05
2023-01-13T05:38:29.392Z,6.82
2023-01-13T05:40:55.635Z,6.73
2023-01-13T05:43:22.010Z,6.85
2023-01-13T05:45:48.335Z,6.60
2023-01-13T05:48:14.604Z,6.63
2023-01-13T05:50:40.868Z,6.56
2023-01-13T05:53:07.107Z,6.63
2023-01-13T05:55:33.369Z,6.48
2023-01-13T05:57:59.605Z,6.64
2023-01-13T06:00:25.849Z,6.58
2023-01-13T06:02:52.088Z,6.65
2023-01-13T06:05:18.349Z,6.63
2023-01-13T06:07:44.594Z,6.64
2023-01-13T06:10:10.830Z,6.61
2023-01-13T06:12:37.094Z,6.34
2023-01-13T06:15:03.352Z,6.49
2023-01-13T06:17:29.615Z,6.50
2023-01-13T06:19:55.881Z,6.43
2023-01-13T06:22:22.167Z,6.52
2023-01-13T06:24:48.411Z,6.46
2023-01-13T06:27:14.676Z,6.45
2023-01-13T06:29:40.931Z,6.40
2023-01-13T06:32:07.168Z,6.36
2023-01-13T06:34:33.421Z,6.17
2023-01-13T06:36:59.684Z,6.32
2023-01-13T06:39:25.939Z,6.55
2023-01-13T06:41:52.199Z,6.46
2023-01-13T06:44:18.473Z,6.49
2023-01-13T06:46:44.759Z,6.72
2023-01-13T06:49:11.027Z,6.65
2023-01-13T06:51:37.293Z,6.48
2023-01-13T06:54:03.553Z,6.64
2023-01-13T06:56:29.812Z,6.72
2023-01-13T06:58:56.050Z,6.77
2023-01-13T07:01:22.425Z,6.67
2023-01-13T07:03:48.733Z,6.62
2023-01-13T07:06:14.970Z,6.80
2023-01-13T07:08:41.197Z,6.88
2023-01-13T07:11:07.437Z,6.84
2023-01-13T07:13:33.968Z,6.79
2023-01-13T07:16:00.344Z,6.79
2023-01-13T07:18:26.637Z,6.72
2023-01-13T07:20:52.870Z,6.71
2023-01-13T07:23:19.100Z,6.75
2023-01-13T07:25:45.336Z,6.84
2023-01-13T07:28:11.587Z,6.75
2023-01-13T07:30:37.843Z,6.90
2023-01-13T07:33:04.082Z,6.80
2023-01-13T07:35:30.328Z,6.94
2023-01-13T07:37:56.570Z,6.89
2023-01-13T07:40:22.813Z,6.91
2023-01-13T07:42:49.066Z,6.90
2023-01-13T07:45:15.313Z,6.67
2023-01-13T07:47:41.554Z,6.48
2023-01-13T07:50:07.809Z,6.62
2023-01-13T07:52:34.047Z,6.66
2023-01-13T07:55:00.309Z,6.73
2023-01-13T07:57:26.569Z,6.79
2023-01-13T07:59:52.831Z,6.63
2023-01-13T08:02:19.259Z,6.70
2023-01-13T08:04:45.580Z,6.58
2023-01-13T08:07:11.934Z,6.74
2023-01-13T08:09:38.161Z,6.80
2023-01-13T08:12:04.424Z,6.91
2023-01-13T08:14:30.707Z,6.69
2023-01-13T08:16:57.043Z,6.50
2023-01-13T08:19:23.288Z,6.52
2023-01-13T08:21:49.542Z,6.59
2023-01-13T08:24:15.815Z,6.68
2023-01-13T08:26:42.092Z,6.86
2023-01-13T08:29:08.349Z,6.86
2023-01-13T08:31:34.587Z,6.89
2023-01-13T08:34:00.845Z,6.80
2023-01-13T08:36:27.077Z,6.76
2023-01-13T08:38:53.342Z,6.79
2023-01-13T08:41:19.601Z,6.87
2023-01-13T08:43:45.859Z,6.87
2023-01-13T08:46:12.137Z,6.87
2023-01-13T08:48:38.431Z,6.80
2023-01-13T08:51:04.686Z,6.63
2023-01-13T08:53:30.949Z,6.72
2023-01-13T08:55:57.228Z,6.79
2023-01-13T08:58:23.483Z,6.84
2023-01-13T09:00:49.742Z,6.92
2023-01-13T09:03:16.011Z,7.00
2023-01-13T09:05:42.251Z,7.02
2023-01-13T09:08:08.525Z,6.92
2023-01-13T09:10:34.773Z,7.03
2023-01-13T09:13:01.031Z,7.09
2023-01-13T09:15:27.364Z,7.17
2023-01-13T09:17:53.637Z,7.22
2023-01-13T09:20:19.893Z,7.26
2023-01-13T09:22:46.186Z,7.20
2023-01-13T09:25:12.480Z,7.08
2023-01-13T09:27:38.734Z,7.21
2023-01-13T09:30:04.985Z,7.14
2023-01-13T09:32:31.249Z,7.22
2023-01-13T09:34:57.499Z,7.36
2023-01-13T09:37:23.758Z,7.32
2023-01-13T09:39:50.018Z,7.22
2023-01-13T09:42:16.262Z,7.12
2023-01-13T09:44:42.532Z,7.22
2023-01-13T09:47:08.778Z,7.27
2023-01-13T09:49:35.040Z,7.25
2023-01-13T09:52:01.301Z,7.16
2023-01-13T09:54:27.545Z,7.16
2023-01-13T09:56:53.786Z,6.92
2023-01-13T09:59:20.051Z,6.84
2023-01-13T10:01:46.296Z,6.91
2023-01-13T10:04:12.545Z,6.92
2023-01-13T10:06:38.787Z,7.05
2023-01-13T10:09:05.047Z,7.01
2023-01-13T10:11:31.304Z,7.08
2023-01-13T10:13:57.562Z,7.24
2023-01-13T10:16:23.905Z,7.36
2023-01-13T10:18:50.184Z,7.38
2023-01-13T10:21:16.429Z,7.54
2023-01-13T10:23:42.699Z,7.68
2023-01-13T10:26:09.012Z,7.72
2023-01-13T10:28:35.326Z,7.90
2023-01-13T10:31:01.666Z,7.89
2023-01-13T10:33:28.146Z,7.85
2023-01-13T10:35:54.441Z,7.92
2023-01-13T10:38:20.680Z,7.95
2023-01-13T10:40:46.920Z,8.05
2023-01-13T10:43:13.165Z,8.10
2023-01-13T10:45:39.418Z,8.05
2023-01-13T10:48:05.676Z,8.13
2023-01-13T10:50:31.922Z,8.05
2023-01-13T10:52:58.177Z,8.00
2023-01-13T10:55:24.426Z,8.14
2023-01-13T10:57:50.673Z,8.20
2023-01-13T11:00:16.937Z,8.21
2023-01-13T11:02:43.208Z,8.21
2023-01-13T11:05:09.564Z,8.27
2023-01-13T11:07:35.873Z,8.31
2023-01-13T11:10:02.124Z,8.08
2023-01-13T11:12:28.390Z,8.10
2023-01-13T11:14:54.629Z,8.13
2023-01-13T11:17:20.880Z,8.22
2023-01-13T11:19:47.128Z,8.22
2023-01-13T11:22:13.366Z,8.21
2023-01-13T11:24:39.627Z,8.29
2023-01-13T11:27:05.875Z,8.30
2023-01-13T11:29:32.149Z,8.27
2023-01-13T11:31:58.392Z,8.35
2023-01-13T11:34:24.649Z,8.33
2023-01-13T11:36:50.914Z,8.43
2023-01-13T11:39:17.175Z,8.48
2023-01-13T11:41:43.450Z,8.58
2023-01-13T11:44:09.704Z,8.58
2023-01-13T11:46:36.014Z,8.17
2023-01-13T11:49:02.316Z,8.08
2023-01-13T11:51:28.582Z,8.20
2023-01-13T11:53:54.835Z,8.24
2023-01-13T11:56:21.092Z,8.34
2023-01-13T11:58:51.197Z,8.51
2023-01-13T12:01:17.727Z,8.58
2023-01-13T12:03:44.039Z,8.69
2023-01-13T12:06:10.309Z,8.61
2023-01-13T12:08:36.791Z,8.56
2023-01-13T12:11:03.101Z,8.58
2023-01-13T12:13:29.359Z,8.47
2023-01-13T12:15:55.603Z,8.35
2023-01-13T12:18:21.865Z,8.19
2023-01-13T12:20:48.105Z,8.26
2023-01-13T12:23:14.355Z,8.43
2023-01-13T12:25:40.592Z,8.66
2023-01-13T12:28:06.867Z,8.67
2023-01-13T12:30:33.148Z,8.83
2023-01-13T12:32:59.407Z,8.90
2023-01-13T12:35:25.668Z,8.90
2023-01-13T12:37:51.929Z,8.83
2023-01-13T12:40:18.189Z,8.92
2023-01-13T12:42:44.425Z,9.11
2023-01-13T12:45:10.670Z,9.13
2023-01-13T12:47:36.924Z,9.37
2023-01-13T12:50:03.196Z,9.59
2023-01-13T12:52:29.441Z,9.74
2023-01-13T12:54:55.693Z,9.67
2023-01-13T12:57:21.934Z,9.63
2023-01-13T12:59:48.189Z,9.65
2023-01-13T13:02:14.612Z,9.55
2023-01-13T13:04:41.048Z,9.37
2023-01-13T13:07:07.288Z,9.09
2023-01-13T13:09:33.527Z,9.10
2023-01-13T13:11:59.792Z,9.14
2023-01-13T13:14:26.049Z,9.32
2023-01-13T13:16:52.388Z,9.51
2023-01-13T13:19:18.798Z,9.67
2023-01-13T13:21:45.068Z,9.84
2023-01-13T13:24:11.334Z,9.89
2023-01-13T13:26:37.583Z,10.01
2023-01-13T13:29:03.938Z,10.08
2023-01-13T13:31:30.186Z,10.17
2023-01-13T13:33:56.446Z,10.26
2023-01-13T13:36:22.697Z,10.04
2023-01-13T13:38:48.937Z,10.18
2023-01-13T13:41:15.214Z,10.09
2023-01-13T13:43:41.462Z,10.12
2023-01-13T13:46:07.763Z,9.74
2023-01-13T13:48:34.053Z,9.91
2023-01-13T13:51:00.292Z,10.10
2023-01-13T13:53:26.529Z,10.12
2023-01-13T13:55:52.770Z,10.19
2023-01-13T13:58:19.010Z,10.19
2023-01-13T14:00:45.265Z,10.27
2023-01-13T14:03:11.538Z,10.25
2023-01-13T14:05:37.801Z,10.31
2023-01-13T14:08:04.022Z,10.34
2023-01-13T14:10:30.288Z,10.39
2023-01-13T14:12:56.664Z,10.41
2023-01-13T14:15:23.843Z,10.33
2023-01-13T14:17:50.128Z,10.38
2023-01-13T14:20:16.388Z,10.17
2023-01-13T14:22:42.631Z,10.14
2023-01-13T14:25:08.890Z,10.19
2023-01-13T14:27:35.461Z,10.13
2023-01-13T14:30:01.709Z,9.95
2023-01-13T14:32:28.079Z,9.92
2023-01-13T14:34:54.312Z,9.91
2023-01-13T14:37:20.537Z,9.88
2023-01-13T14:39:46.775Z,9.64
2023-01-13T14:42:13.008Z,9.70
2023-01-13T14:44:39.280Z,9.64
2023-01-13T14:47:05.518Z,9.73
2023-01-13T14:49:31.769Z,9.85
2023-01-13T14:51:58.023Z,9.85
2023-01-13T14:54:24.381Z,9.90
2023-01-13T14:56:50.626Z,9.83
2023-01-13T14:59:16.857Z,9.79
2023-01-13T15:01:43.228Z,9.71
2023-01-13T15:04:09.543Z,9.75
2023-01-13T15:06:35.790Z,9.61
2023-01-13T15:09:02.046Z,9.55
2023-01-13T15:11:28.327Z,9.38
2023-01-13T15:13:54.598Z,9.46
2023-01-13T15:16:20.960Z,9.27
2023-01-13T15:18:47.253Z,9.08
2023-01-13T15:21:13.489Z,9.05
2023-01-13T15:23:39.732Z,9.18
2023-01-13T15:26:05.994Z,9.16
2023-01-13T15:28:32.273Z,9.24
2023-01-13T15:30:58.542Z,9.23
2023-01-13T15:33:24.879Z,9.39
2023-01-13T15:35:51.121Z,9.51
2023-01-13T15:38:17.396Z,9.55
2023-01-13T15:40:43.653Z,9.53
2023-01-13T15:43:09.882Z,9.50
2023-01-13T15:45:36.134Z,9.55
2023-01-13T15:48:02.385Z,9.49
2023-01-13T15:50:28.786Z,9.52
2023-01-13T15:52:55.074Z,9.34
2023-01-13T15:55:21.309Z,9.38
2023-01-13T15:57:47.568Z,9.42
2023-01-13T16:00:13.835Z,9.38
2023-01-13T16:02:40.101Z,9.37
2023-01-13T16:05:06.361Z,9.43
2023-01-13T16:07:32.621Z,9.21
2023-01-13T16:09:58.874Z,9.06
2023-01-13T16:12:25.115Z,8.97
2023-01-13T16:14:51.377Z,8.75
2023-01-13T16:17:17.642Z,8.66
2023-01-13T16:19:43.918Z,8.66
2023-01-13T16:22:10.155Z,8.59
2023-01-13T16:24:36.393Z,8.42
2023-01-13T16:27:02.628Z,8.56
2023-01-13T16:29:28.965Z,8.53
2023-01-13T16:31:55.232Z,8.55
2023-01-13T16:34:21.498Z,8.56
2023-01-13T16:36:47.755Z,8.53
2023-01-13T16:39:14.009Z,8.36
2023-01-13T16:41:40.268Z,8.23
2023-01-13T16:44:06.528Z,8.34
2023-01-13T16:46:32.798Z,8.45
2023-01-13T16:48:59.063Z,8.50
2023-01-13T16:51:25.351Z,8.35
2023-01-13T16:53:51.627Z,8.40
2023-01-13T16:56:18.755Z,8.61
2023-01-13T16:58:46.273Z,8.58
2023-01-13T17:01:12.570Z,8.58
2023-01-13T17:03:38.867Z,8.55
2023-01-13T17:06:05.152Z,8.42
2023-01-13T17:08:31.394Z,8.14
2023-01-13T17:10:57.640Z,8.10
2023-01-13T17:13:23.899Z,8.02
2023-01-13T17:15:50.141Z,8.10
2023-01-13T17:18:16.373Z,8.07
2023-01-13T17:20:42.612Z,7.82
2023-01-13T17:23:08.891Z,7.79
2023-01-13T17:25:35.179Z,7.71
2023-01-13T17:28:01.468Z,7.70
2023-01-13T17:30:27.738Z,7.71
2023-01-13T17:32:54.033Z,7.67
2023-01-13T17:35:20.327Z,7.67
2023-01-13T17:37:46.607Z,7.67
2023-01-13T17:40:12.905Z,7.79
2023-01-13T17:42:39.189Z,7.81
2023-01-13T17:45:05.435Z,7.74
2023-01-13T17:47:31.669Z,7.76
2023-01-13T17:49:57.934Z,7.81
2023-01-13T17:52:24.193Z,7.81
2023-01-13T17:54:50.450Z,7.85
2023-01-13T17:57:16.693Z,8.00
2023-01-13T17:59:42.927Z,7.95
2023-01-13T18:02:09.309Z,7.91
2023-01-13T18:04:35.634Z,7.98
2023-01-13T18:07:01.877Z,7.98
2023-01-13T18:09:28.122Z,8.18
2023-01-13T18:11:54.379Z,8.21
2023-01-13T18:14:20.629Z,8.15
2023-01-13T18:16:46.986Z,8.29
2023-01-13T18:19:13.240Z,8.35
2023-01-13T18:21:39.477Z,8.01
2023-01-13T18:24:05.721Z,8.05
2023-01-13T18:26:31.978Z,8.10
2023-01-13T18:28:58.247Z,8.19
2023-01-13T18:31:24.520Z,7.95
2023-01-13T18:33:50.812Z,7.91
2023-01-13T18:36:17.050Z,7.96
2023-01-13T18:38:43.296Z,8.00
2023-01-13T18:41:09.527Z,8.05
2023-01-13T18:43:35.759Z,8.09
2023-01-13T18:46:02.046Z,7.89
2023-01-13T18:48:28.304Z,7.91
2023-01-13T18:50:54.546Z,7.87
2023-01-13T18:53:20.804Z,7.96
2023-01-13T18:55:47.047Z,7.99
2023-01-13T18:58:13.301Z,7.98
2023-01-13T19:00:39.564Z,8.02
2023-01-13T19:05:32.080Z,8.05
2023-01-13T19:07:58.336Z,7.95
2023-01-13T19:10:24.590Z,7.63
2023-01-13T19:12:50.852Z,7.82
2023-01-13T19:15:17.134Z,7.77
2023-01-13T19:17:43.372Z,7.77
2023-01-13T19:20:09.626Z,7.83
2023-01-13T19:22:35.878Z,7.78
2023-01-13T19:25:02.173Z,7.70
2023-01-13T19:27:28.405Z,7.55
2023-01-13T19:29:54.655Z,7.46
2023-01-13T19:32:20.901Z,7.55
2023-01-13T19:34:48.376Z,7.64
2023-01-13T19:37:14.631Z,7.64
2023-01-13T19:39:40.871Z,7.62
2023-01-13T19:42:07.127Z,7.67
2023-01-13T19:44:33.361Z,7.59
2023-01-13T19:46:59.600Z,7.65
2023-01-13T19:49:25.823Z,7.70
2023-01-13T19:51:52.063Z,7.68
2023-01-13T19:54:18.323Z,7.69
2023-01-13T19:56:44.564Z,7.71
2023-01-13T19:59:10.808Z,7.51
2023-01-13T20:01:37.096Z,7.64
2023-01-13T20:04:03.406Z,7.65
2023-01-13T20:06:29.659Z,7.78
2023-01-13T20:08:55.926Z,7.78
2023-01-13T20:11:22.177Z,7.90
2023-01-13T20:13:48.411Z,7.87
2023-01-13T20:16:14.681Z,7.96
2023-01-13T20:18:40.970Z,8.08
2023-01-13T20:21:07.239Z,8.09
2023-01-13T20:23:33.490Z,8.13
2023-01-13T20:25:59.726Z,8.02
2023-01-13T20:28:25.987Z,8.03
2023-01-13T20:30:52.276Z,8.07
2023-01-13T20:33:18.506Z,8.02
2023-01-13T20:35:44.750Z,7.78
2023-01-13T20:38:11.010Z,7.90
2023-01-13T20:40:37.243Z,7.87
2023-01-13T20:43:03.492Z,7.84
2023-01-13T20:45:30.772Z,7.81
2023-01-13T20:47:57.003Z,7.74
2023-01-13T20:50:23.339Z,7.76
2023-01-13T20:52:49.589Z,7.83
2023-01-13T20:55:15.828Z,7.85
2023-01-13T20:57:42.121Z,7.91
2023-01-13T21:00:08.388Z,7.92
2023-01-13T21:02:34.647Z,7.90
2023-01-13T21:05:00.920Z,8.07
2023-01-13T21:07:27.165Z,7.76
2023-01-13T21:09:53.398Z,7.83
2023-01-13T21:12:19.638Z,7.91
2023-01-13T21:14:45.893Z,8.00
2023-01-13T21:17:12.127Z,8.12
2023-01-13T21:19:38.369Z,8.02
2023-01-13T21:22:04.616Z,8.07
2023-01-13T21:24:30.880Z,8.06
2023-01-13T21:26:57.141Z,8.11
2023-01-13T21:29:23.375Z,8.09
2023-01-13T21:31:49.670Z,8.13
2023-01-13T21:34:15.936Z,8.13
2023-01-13T21:36:42.200Z,8.02
2023-01-13T21:39:08.459Z,7.96
2023-01-13T21:41:34.709Z,8.07
2023-01-13T21:44:00.981Z,8.12
2023-01-13T21:46:27.289Z,8.04
2023-01-13T21:48:53.532Z,8.09
2023-01-13T21:51:19.762Z,8.01
2023-01-13T21:53:46.011Z,8.07
2023-01-13T21:56:12.427Z,8.19
2023-01-13T21:58:38.716Z,8.02
2023-01-13T22:01:05.080Z,7.90
2023-01-13T22:03:31.360Z,7.78
2023-01-13T22:05:57.631Z,7.46
2023-01-13T22:08:23.877Z,7.50
2023-01-13T22:10:50.140Z,7.39
2023-01-13T22:13:21.575Z,7.37
2023-01-13T22:15:47.861Z,7.34
2023-01-13T22:18:14.112Z,7.42
2023-01-13T22:20:40.367Z,7.53
2023-01-13T22:23:06.610Z,7.49
2023-01-13T22:25:32.850Z,7.45
2023-01-13T22:27:59.095Z,7.53
2023-01-13T22:30:25.343Z,7.56
2023-01-13T22:32:51.602Z,7.54
2023-01-13T22:35:17.862Z,7.53
2023-01-13T22:37:44.111Z,7.56
2023-01-13T22:40:10.369Z,7.59
2023-01-13T22:42:36.609Z,7.58
2023-01-13T22:45:02.860Z,7.64
2023-01-13T22:47:29.103Z,7.67
2023-01-13T22:49:55.340Z,7.66
2023-01-13T22:52:21.587Z,7.59
2023-01-13T22:54:47.839Z,7.66
2023-01-13T22:57:14.394Z,7.59
2023-01-13T22:59:40.663Z,7.60
2023-01-13T23:02:06.919Z,7.54
2023-01-13T23:04:33.306Z,7.56
2023-01-13T23:06:59.586Z,7.56
2023-01-13T23:09:25.839Z,7.57
2023-01-13T23:11:52.107Z,7.62
2023-01-13T23:14:18.372Z,7.63
2023-01-13T23:16:44.666Z,7.65
2023-01-13T23:19:10.931Z,7.64
2023-01-13T23:21:37.173Z,7.69
2023-01-13T23:24:03.442Z,7.79
2023-01-13T23:26:29.691Z,7.74
2023-01-13T23:28:55.927Z,7.89
2023-01-13T23:31:22.183Z,7.93
2023-01-13T23:33:48.466Z,7.82
2023-01-13T23:36:14.727Z,7.84
2023-01-13T23:38:40.981Z,7.88
2023-01-13T23:41:07.244Z,7.83
2023-01-13T23:43:33.491Z,7.88
2023-01-13T23:45:59.762Z,7.90
2023-01-13T23:48:26.023Z,7.78
2023-01-13T23:50:52.313Z,7.85
2023-01-13T23:53:18.558Z,7.82
2023-01-13T23:55:44.818Z,7.82
2023-01-13T23:58:11.057Z,7.93
